Turvolandia, Brazil
Current Conditions -  °F | °C
As of 4:00 PM on Monday 26 Jan 2015 (Local Time) from SBPC Reporting Station
Thunderstorm Thunderstorm  
Wind Chill: 77°   Ceiling: Unl
Heat Index: 79°   Visibility: 6mi
Dew Point: 70°   Wind: 6mph
Humidity: 78%   Direction: 120°ESE
Pressure: 30.09"   Gusts: NA
Location:  21.88°S, 45.79°W
Report Text: SBPC 261800Z 12005KT 9999 TS FEW020 SCT020CB 25/21 Q1019
Loading
Personal Weather Stations






























Interactive Weather Map New forecast layout! Learn more

10-Day Weather Forecast

Advertisements
Track Severe Weather on mobile